createdAt,value
2017-05-07T00:02:06.612Z,79.50
2017-05-07T00:04:34.928Z,80.70
2017-05-07T00:07:03.208Z,79.30
2017-05-07T00:09:32.244Z,81.00
2017-05-07T00:12:00.520Z,81.30
2017-05-07T00:14:28.800Z,81.00
2017-05-07T00:16:57.093Z,80.80
2017-05-07T00:19:25.378Z,80.20
2017-05-07T00:21:53.671Z,80.70
2017-05-07T00:24:21.948Z,81.20
2017-05-07T00:26:50.257Z,80.70
2017-05-07T00:29:18.543Z,79.50
2017-05-07T00:31:46.824Z,79.70
2017-05-07T00:34:15.126Z,78.40
2017-05-07T00:36:43.405Z,78.10
2017-05-07T00:39:11.702Z,78.50
2017-05-07T00:41:39.981Z,78.80
2017-05-07T00:44:08.940Z,79.00
2017-05-07T00:46:37.604Z,78.60
2017-05-07T00:49:06.248Z,78.60
2017-05-07T00:51:34.523Z,78.60
2017-05-07T00:54:02.824Z,79.20
2017-05-07T00:56:31.104Z,80.40
2017-05-07T00:58:59.760Z,79.60
2017-05-07T01:01:28.036Z,80.40
2017-05-07T01:03:56.370Z,80.80
2017-05-07T01:06:24.676Z,80.00
2017-05-07T01:08:52.960Z,80.30
2017-05-07T01:11:21.258Z,80.50
2017-05-07T01:13:50.275Z,79.00
2017-05-07T01:16:18.571Z,80.20
2017-05-07T01:18:46.852Z,81.10
2017-05-07T01:21:15.148Z,80.90
2017-05-07T01:23:43.425Z,81.30
2017-05-07T01:26:11.713Z,80.40
2017-05-07T01:28:40.017Z,80.70
2017-05-07T01:31:08.297Z,81.20
2017-05-07T01:33:36.592Z,81.00
2017-05-07T01:36:04.873Z,80.80
2017-05-07T01:38:33.183Z,80.00
2017-05-07T01:41:01.460Z,80.00
2017-05-07T01:43:29.737Z,79.30
2017-05-07T01:45:58.035Z,79.30
2017-05-07T01:48:27.053Z,80.40
2017-05-07T01:50:55.351Z,79.60
2017-05-07T01:53:23.627Z,79.40
2017-05-07T01:55:51.909Z,80.20
2017-05-07T01:58:20.237Z,81.40
2017-05-07T02:00:49.256Z,81.70
2017-05-07T02:03:17.553Z,81.80
2017-05-07T02:05:45.835Z,81.80
2017-05-07T02:08:14.129Z,81.50
2017-05-07T02:10:42.403Z,81.70
2017-05-07T02:13:10.708Z,81.90
2017-05-07T02:15:39.723Z,81.50
2017-05-07T02:18:08.665Z,81.50
2017-05-07T02:20:36.969Z,80.60
2017-05-07T02:23:05.984Z,80.80
2017-05-07T02:25:34.276Z,82.10
2017-05-07T02:28:02.557Z,80.60
2017-05-07T02:30:30.864Z,80.70
2017-05-07T02:32:59.140Z,81.90
2017-05-07T02:35:27.424Z,81.50
2017-05-07T02:37:55.716Z,81.90
2017-05-07T02:40:24.737Z,82.30
2017-05-07T02:42:53.456Z,82.20
2017-05-07T02:45:21.741Z,81.90
2017-05-07T02:47:50.036Z,82.10
2017-05-07T02:50:19.060Z,83.10
2017-05-07T02:52:47.356Z,81.80
2017-05-07T02:55:15.628Z,81.60
2017-05-07T02:57:43.923Z,81.80
2017-05-07T03:00:12.205Z,82.30
2017-05-07T03:02:40.514Z,82.20
2017-05-07T03:05:09.532Z,82.20
2017-05-07T03:07:37.811Z,82.10
2017-05-07T03:10:06.105Z,81.60
2017-05-07T03:12:34.393Z,81.80
2017-05-07T03:15:02.689Z,81.90
2017-05-07T03:17:30.968Z,81.00
2017-05-07T03:19:59.279Z,81.80
2017-05-07T03:22:28.297Z,82.70
2017-05-07T03:24:56.572Z,82.70
2017-05-07T03:27:24.884Z,82.20
2017-05-07T03:29:53.726Z,81.80
2017-05-07T03:32:22.020Z,81.50
2017-05-07T03:34:50.299Z,82.20
2017-05-07T03:37:18.596Z,82.10
2017-05-07T03:39:46.877Z,81.60
2017-05-07T03:42:15.172Z,81.40
2017-05-07T03:44:43.448Z,80.90
2017-05-07T03:47:11.760Z,80.90
2017-05-07T03:49:40.039Z,81.70
2017-05-07T03:52:08.317Z,82.30
2017-05-07T03:54:36.621Z,82.10
2017-05-07T03:57:04.899Z,82.30
2017-05-07T03:59:33.208Z,81.30
2017-05-07T04:02:01.483Z,81.40
2017-05-07T04:04:29.784Z,81.90
2017-05-07T04:06:58.068Z,81.70
2017-05-07T04:09:26.353Z,81.90
2017-05-07T04:11:54.649Z,82.40
2017-05-07T04:14:22.928Z,81.00
2017-05-07T04:16:51.229Z,81.10
2017-05-07T04:19:19.503Z,81.60
2017-05-07T04:21:47.809Z,81.20
2017-05-07T04:24:16.825Z,80.80
2017-05-07T04:26:45.108Z,82.20
2017-05-07T04:29:13.400Z,81.40
2017-05-07T04:31:41.679Z,82.00
2017-05-07T04:34:09.972Z,81.70
2017-05-07T04:36:38.841Z,82.40
2017-05-07T04:39:07.132Z,81.90
2017-05-07T04:41:35.410Z,82.20
2017-05-07T04:44:03.713Z,81.80
2017-05-07T04:46:33.101Z,81.20
2017-05-07T04:49:01.412Z,82.10
2017-05-07T04:51:30.261Z,81.20
2017-05-07T04:53:58.540Z,81.90
2017-05-07T04:56:26.836Z,82.40
2017-05-07T04:58:55.859Z,81.30
2017-05-07T05:01:24.152Z,81.90
2017-05-07T05:03:52.436Z,82.20
2017-05-07T05:06:20.767Z,81.10
2017-05-07T05:08:49.047Z,80.50
2017-05-07T05:11:17.328Z,81.10
2017-05-07T05:13:45.619Z,82.00
2017-05-07T05:16:13.900Z,81.40
2017-05-07T05:18:42.200Z,81.60
2017-05-07T05:21:16.098Z,81.20
2017-05-07T05:24:00.116Z,81.60
2017-05-07T05:26:29.094Z,80.30
2017-05-07T05:29:19.044Z,82.30
2017-05-07T05:31:54.139Z,81.20
2017-05-07T05:34:22.431Z,81.10
2017-05-07T05:36:50.708Z,81.70
2017-05-07T05:39:19.007Z,80.90
2017-05-07T05:41:47.288Z,81.10
2017-05-07T05:44:15.573Z,82.70
2017-05-07T05:46:44.618Z,81.50
2017-05-07T05:49:12.904Z,81.60
2017-05-07T05:51:41.217Z,81.70
2017-05-07T05:54:10.240Z,82.50
2017-05-07T05:56:38.589Z,81.90
2017-05-07T05:59:07.608Z,81.50
2017-05-07T06:01:36.048Z,82.10
2017-05-07T06:04:04.345Z,82.70
2017-05-07T06:06:33.368Z,82.50
2017-05-07T06:09:01.669Z,81.30
2017-05-07T06:11:29.946Z,81.20
2017-05-07T06:13:58.240Z,80.40
2017-05-07T06:16:26.519Z,81.40
2017-05-07T06:18:54.885Z,80.80
2017-05-07T06:21:23.164Z,80.70
2017-05-07T06:23:51.532Z,80.80
2017-05-07T06:26:19.819Z,80.90
2017-05-07T06:28:48.095Z,80.80
2017-05-07T06:31:16.392Z,80.50
2017-05-07T06:33:44.675Z,80.60
2017-05-07T06:36:14.686Z,80.60
2017-05-07T06:38:42.965Z,80.30
2017-05-07T06:41:12.279Z,80.10
2017-05-07T06:43:41.300Z,80.20
2017-05-07T06:46:09.576Z,80.20
2017-05-07T06:48:37.871Z,79.80
2017-05-07T06:51:06.145Z,79.90
2017-05-07T06:53:34.452Z,80.00
2017-05-07T06:56:03.100Z,79.40
2017-05-07T06:58:31.392Z,79.10
2017-05-07T07:00:59.680Z,79.00
2017-05-07T07:03:27.996Z,78.90
2017-05-07T07:05:56.722Z,79.20
2017-05-07T07:08:25.020Z,79.00
2017-05-07T07:10:53.320Z,79.30
2017-05-07T07:13:22.336Z,79.80
2017-05-07T07:15:51.095Z,79.90
2017-05-07T07:18:20.676Z,79.60
2017-05-07T07:20:48.983Z,80.00
2017-05-07T07:23:18.004Z,80.10
2017-05-07T07:25:46.284Z,79.00
2017-05-07T07:28:14.585Z,78.20
2017-05-07T07:30:42.864Z,78.80
2017-05-07T07:33:11.157Z,79.00
2017-05-07T07:35:39.435Z,78.80
2017-05-07T07:38:07.727Z,78.80
2017-05-07T07:40:36.756Z,79.00
2017-05-07T07:43:05.064Z,79.00
2017-05-07T07:45:33.343Z,78.70
2017-05-07T07:48:01.625Z,78.30
2017-05-07T07:50:29.920Z,78.30
2017-05-07T07:52:58.943Z,79.30
2017-05-07T07:55:27.240Z,78.60
2017-05-07T07:57:55.524Z,79.00
2017-05-07T08:00:23.822Z,79.20
2017-05-07T08:02:52.099Z,78.90
2017-05-07T08:05:20.375Z,79.00
2017-05-07T08:07:48.675Z,79.10
2017-05-07T08:10:17.704Z,79.00
2017-05-07T08:12:46.002Z,79.20
2017-05-07T08:15:14.280Z,78.80
2017-05-07T08:17:42.575Z,78.70
2017-05-07T08:20:10.852Z,78.40
2017-05-07T08:22:39.215Z,79.10
2017-05-07T08:25:07.492Z,78.50
2017-05-07T08:27:35.768Z,78.20
2017-05-07T08:30:04.063Z,79.10
2017-05-07T08:32:32.343Z,78.70
2017-05-07T08:35:00.644Z,75.70
2017-05-07T08:37:28.928Z,76.50
2017-05-07T08:39:57.247Z,76.90
2017-05-07T08:42:25.529Z,76.20
2017-05-07T08:44:53.806Z,75.80
2017-05-07T08:47:22.099Z,75.60
2017-05-07T08:49:50.379Z,76.00
2017-05-07T08:52:19.418Z,77.90
2017-05-07T08:54:47.696Z,78.80
2017-05-07T08:57:15.989Z,78.40
2017-05-07T08:59:44.266Z,76.30
2017-05-07T09:02:12.587Z,77.00
2017-05-07T09:04:41.613Z,77.70
2017-05-07T09:07:09.894Z,77.30
2017-05-07T09:09:38.192Z,76.40
2017-05-07T09:12:24.248Z,77.80
2017-05-07T09:15:07.425Z,74.90
2017-05-07T09:17:45.252Z,73.60
2017-05-07T09:20:14.287Z,75.00
2017-05-07T09:22:42.563Z,75.90
2017-05-07T09:25:10.860Z,74.90
2017-05-07T09:27:39.140Z,75.00
2017-05-07T09:30:07.448Z,75.20
2017-05-07T09:32:36.469Z,74.50
2017-05-07T09:35:04.752Z,75.40
2017-05-07T09:37:33.048Z,75.90
2017-05-07T09:40:01.327Z,74.90
2017-05-07T09:42:29.620Z,74.20
2017-05-07T09:44:57.898Z,73.70
2017-05-07T09:47:26.204Z,73.50
2017-05-07T09:49:54.486Z,75.30
2017-05-07T09:52:22.779Z,75.60
2017-05-07T09:54:51.055Z,75.00
2017-05-07T09:57:19.364Z,76.00
2017-05-07T09:59:47.639Z,76.50
2017-05-07T10:02:15.928Z,74.40
2017-05-07T10:04:44.219Z,74.90
2017-05-07T10:07:13.235Z,75.40
2017-05-07T10:09:41.541Z,74.10
2017-05-07T10:12:09.820Z,75.70
2017-05-07T10:14:38.100Z,77.10
2017-05-07T10:17:06.391Z,77.70
2017-05-07T10:19:34.672Z,78.10
2017-05-07T10:22:02.984Z,78.50
2017-05-07T10:24:32.001Z,78.50
2017-05-07T10:27:00.688Z,79.60
2017-05-07T10:29:28.980Z,79.90
2017-05-07T10:31:57.262Z,80.90
2017-05-07T10:34:25.560Z,82.30
2017-05-07T10:36:53.856Z,81.40
2017-05-07T10:39:22.172Z,82.00
2017-05-07T10:41:50.451Z,82.50
2017-05-07T10:44:18.746Z,82.40
2017-05-07T10:46:47.045Z,80.70
2017-05-07T10:49:15.329Z,80.40
2017-05-07T10:51:43.623Z,81.00
2017-05-07T10:54:12.185Z,81.60
2017-05-07T10:56:40.492Z,81.60
2017-05-07T10:59:08.777Z,80.00
2017-05-07T11:01:37.056Z,80.10
2017-05-07T11:04:05.360Z,80.20
2017-05-07T11:06:33.644Z,81.10
2017-05-07T11:09:02.700Z,80.40
2017-05-07T11:11:30.975Z,79.90
2017-05-07T11:13:59.271Z,79.40
2017-05-07T11:16:27.553Z,80.60
2017-05-07T11:18:55.846Z,79.50
2017-05-07T11:21:24.120Z,81.30
2017-05-07T11:23:52.431Z,80.40
2017-05-07T11:26:21.447Z,77.80
2017-05-07T11:28:49.745Z,77.40
2017-05-07T11:31:18.039Z,78.40
2017-05-07T11:33:46.310Z,78.30
2017-05-07T11:36:14.603Z,76.90
2017-05-07T11:38:42.887Z,77.10
2017-05-07T11:41:11.194Z,77.20
2017-05-07T11:43:39.483Z,77.60
2017-05-07T11:46:07.796Z,78.30
2017-05-07T11:48:36.100Z,80.50
2017-05-07T11:51:05.123Z,79.60
2017-05-07T11:53:33.415Z,77.80
2017-05-07T11:56:01.692Z,76.60
2017-05-07T11:58:29.987Z,77.70
2017-05-07T12:00:58.267Z,77.10
2017-05-07T12:03:26.563Z,75.70
2017-05-07T12:05:54.909Z,78.30
2017-05-07T12:08:23.209Z,80.30
2017-05-07T12:10:51.491Z,80.30
2017-05-07T12:13:19.802Z,80.20
2017-05-07T12:15:48.079Z,81.60
2017-05-07T12:18:16.359Z,81.50
2017-05-07T12:20:44.656Z,81.10
2017-05-07T12:23:12.933Z,81.10
2017-05-07T12:25:41.224Z,81.90
2017-05-07T12:28:09.505Z,82.50
2017-05-07T12:30:37.816Z,83.00
2017-05-07T12:33:06.889Z,83.80
2017-05-07T12:35:35.174Z,82.90
2017-05-07T12:38:03.466Z,81.80
2017-05-07T12:40:32.516Z,82.80
2017-05-07T12:43:00.825Z,82.20
2017-05-07T12:45:29.876Z,84.10
2017-05-07T12:47:58.175Z,83.10
2017-05-07T12:50:26.472Z,82.90
2017-05-07T12:52:55.519Z,83.10
2017-05-07T12:55:23.804Z,83.90
2017-05-07T12:57:52.103Z,84.70
2017-05-07T13:00:20.379Z,82.20
2017-05-07T13:02:48.665Z,83.80
2017-05-07T13:05:17.702Z,83.90
2017-05-07T13:07:45.980Z,83.70
2017-05-07T13:10:14.293Z,83.60
2017-05-07T13:12:42.571Z,83.50
2017-05-07T13:15:10.877Z,79.10
2017-05-07T13:17:39.899Z,78.80
2017-05-07T13:20:08.177Z,77.00
2017-05-07T13:22:36.468Z,74.50
2017-05-07T13:25:04.753Z,74.10
2017-05-07T13:27:33.052Z,73.50
2017-05-07T13:30:01.328Z,74.20
2017-05-07T13:32:29.619Z,71.60
2017-05-07T13:34:58.643Z,71.80
2017-05-07T13:37:26.940Z,72.70
2017-05-07T13:39:55.220Z,71.30
2017-05-07T13:42:23.535Z,70.50
2017-05-07T13:44:51.820Z,71.00
2017-05-07T13:47:20.840Z,69.90
2017-05-07T13:49:49.134Z,70.00
2017-05-07T13:52:17.415Z,69.90
2017-05-07T13:54:45.712Z,70.80
2017-05-07T13:57:13.996Z,69.20
2017-05-07T13:59:42.308Z,68.20
2017-05-07T14:02:10.586Z,69.10
2017-05-07T14:04:38.859Z,68.10
2017-05-07T14:07:07.151Z,68.40
2017-05-07T14:09:35.431Z,68.90
2017-05-07T14:12:03.724Z,69.20
2017-05-07T14:14:32.013Z,69.20
2017-05-07T14:17:00.332Z,70.30
2017-05-07T14:19:29.352Z,69.30
2017-05-07T14:21:58.212Z,68.90
2017-05-07T14:24:27.253Z,69.90
2017-05-07T14:26:55.532Z,69.80
2017-05-07T14:29:23.828Z,69.60
2017-05-07T14:31:52.108Z,68.30
2017-05-07T14:34:20.407Z,68.30
2017-05-07T14:36:49.432Z,68.00
2017-05-07T14:39:17.748Z,68.50
2017-05-07T14:41:46.390Z,68.20
2017-05-07T14:44:14.672Z,68.70
2017-05-07T14:46:43.073Z,68.20
2017-05-07T14:49:11.352Z,69.10
2017-05-07T14:51:39.656Z,69.10
2017-05-07T14:54:07.931Z,70.00
2017-05-07T14:56:36.236Z,68.50
2017-05-07T14:59:04.528Z,68.80
2017-05-07T15:01:32.811Z,68.50
2017-05-07T15:04:01.112Z,69.30
2017-05-07T15:06:29.394Z,68.80
2017-05-07T15:08:57.691Z,68.50
2017-05-07T15:11:25.973Z,68.30
2017-05-07T15:13:55.007Z,67.70
2017-05-07T15:16:23.292Z,68.90
2017-05-07T15:18:51.588Z,67.90
2017-05-07T15:21:19.867Z,68.60
2017-05-07T15:23:48.168Z,68.50
2017-05-07T15:26:17.195Z,69.50
2017-05-07T15:28:45.484Z,68.70
2017-05-07T15:31:13.784Z,69.20
2017-05-07T15:33:42.063Z,68.80
2017-05-07T15:36:10.374Z,68.70
2017-05-07T15:38:38.667Z,67.70
2017-05-07T15:41:06.985Z,68.40
2017-05-07T15:43:35.264Z,69.60
2017-05-07T15:46:03.539Z,68.90
2017-05-07T15:48:31.832Z,69.30
2017-05-07T15:51:00.112Z,69.30
2017-05-07T15:53:28.412Z,69.20
2017-05-07T15:55:57.432Z,69.50
2017-05-07T15:58:25.735Z,69.10
2017-05-07T16:00:54.017Z,70.00
2017-05-07T16:03:22.312Z,70.30
2017-05-07T16:05:50.651Z,70.00
2017-05-07T16:08:18.930Z,70.20
2017-05-07T16:10:47.223Z,70.40
2017-05-07T16:13:15.504Z,69.70
2017-05-07T16:15:43.808Z,69.90
2017-05-07T16:24:48.811Z,71.20
2017-05-07T16:27:34.587Z,71.50
2017-05-07T16:30:03.613Z,72.20
2017-05-07T16:32:34.598Z,71.20
2017-05-07T16:35:03.644Z,71.80
2017-05-07T16:37:31.931Z,73.10
2017-05-07T16:40:00.203Z,71.80
2017-05-07T16:42:28.495Z,72.10
2017-05-07T16:44:57.624Z,72.40
2017-05-07T16:47:26.664Z,72.30
2017-05-07T16:49:54.947Z,72.40
2017-05-07T16:52:23.240Z,72.30
2017-05-07T16:54:51.520Z,72.60
2017-05-07T16:57:19.825Z,72.70
2017-05-07T16:59:48.112Z,73.00
2017-05-07T17:02:16.387Z,73.50
2017-05-07T17:04:44.683Z,72.60
2017-05-07T17:07:18.601Z,72.90
2017-05-07T17:09:46.895Z,72.20
2017-05-07T17:12:15.176Z,71.60
2017-05-07T17:14:43.475Z,71.90
2017-05-07T17:17:12.493Z,72.50
2017-05-07T17:19:40.771Z,71.90
2017-05-07T17:22:09.065Z,72.40
2017-05-07T17:24:37.340Z,72.20
2017-05-07T17:27:05.632Z,71.70
2017-05-07T17:29:33.911Z,71.80
2017-05-07T17:32:02.217Z,72.20
2017-05-07T17:34:30.496Z,72.00
2017-05-07T17:36:58.772Z,72.40
2017-05-07T17:39:27.807Z,72.60
2017-05-07T17:41:56.080Z,72.10
2017-05-07T17:44:24.372Z,72.20
2017-05-07T17:46:52.653Z,72.20
2017-05-07T17:49:20.961Z,72.60
2017-05-07T17:51:49.309Z,72.90
2017-05-07T17:54:17.616Z,73.30
2017-05-07T17:56:45.901Z,73.40
2017-05-07T17:59:15.283Z,73.10
2017-05-07T18:01:43.951Z,72.90
2017-05-07T18:04:12.332Z,73.30
2017-05-07T18:06:40.657Z,73.30
2017-05-07T18:09:09.675Z,73.40
2017-05-07T18:11:37.972Z,73.00
2017-05-07T18:14:06.253Z,73.50
2017-05-07T18:16:34.529Z,74.00
2017-05-07T18:19:02.828Z,73.40
2017-05-07T18:21:31.106Z,73.90
2017-05-07T18:23:59.406Z,73.30
2017-05-07T18:26:28.591Z,73.30
2017-05-07T18:28:57.634Z,73.30
2017-05-07T18:31:25.923Z,73.30
2017-05-07T18:33:54.220Z,73.20
2017-05-07T18:36:22.504Z,73.90
2017-05-07T18:38:50.793Z,73.50
2017-05-07T18:41:19.828Z,73.50
2017-05-07T18:43:48.105Z,73.40
2017-05-07T18:46:16.411Z,73.60
2017-05-07T18:48:44.699Z,73.60
2017-05-07T18:51:12.979Z,73.70
2017-05-07T18:53:41.276Z,73.80
2017-05-07T18:56:10.300Z,73.90
2017-05-07T18:58:38.591Z,73.80
2017-05-07T19:01:06.875Z,74.00
2017-05-07T19:03:35.171Z,74.10
2017-05-07T19:06:03.459Z,73.90
2017-05-07T19:08:32.499Z,74.40
2017-05-07T19:11:00.775Z,74.20
2017-05-07T19:13:29.058Z,74.80
2017-05-07T19:15:57.824Z,75.20
2017-05-07T19:18:26.116Z,76.00
2017-05-07T19:20:54.419Z,76.00
2017-05-07T19:23:22.699Z,76.00
2017-05-07T19:25:51.001Z,76.30
2017-05-07T19:28:20.019Z,76.90
2017-05-07T19:30:48.300Z,77.10
2017-05-07T19:33:16.596Z,77.40
2017-05-07T19:35:44.882Z,77.70
2017-05-07T19:38:13.184Z,78.60
2017-05-07T19:40:41.466Z,79.90
2017-05-07T19:43:10.512Z,79.20
2017-05-07T19:45:38.793Z,79.90
2017-05-07T19:48:07.072Z,80.60
2017-05-07T19:50:35.376Z,81.40
2017-05-07T19:53:03.656Z,81.60
2017-05-07T19:55:31.959Z,82.50
2017-05-07T19:58:00.243Z,82.90
2017-05-07T20:00:28.548Z,82.50
2017-05-07T20:02:56.829Z,83.00
2017-05-07T20:05:25.116Z,83.30
2017-05-07T20:07:53.412Z,84.00
2017-05-07T20:10:21.687Z,84.60
2017-05-07T20:12:49.984Z,85.50
2017-05-07T20:15:19.009Z,85.80
2017-05-07T20:17:47.315Z,86.10
2017-05-07T20:20:15.596Z,86.40
2017-05-07T20:22:43.872Z,86.20
2017-05-07T20:25:12.445Z,86.60
2017-05-07T20:27:40.736Z,86.80
2017-05-07T20:30:09.036Z,87.20
2017-05-07T20:32:38.083Z,88.10
2017-05-07T20:35:06.401Z,88.40
2017-05-07T20:37:35.423Z,88.10
2017-05-07T20:40:03.703Z,88.60
2017-05-07T20:42:32.009Z,88.60
2017-05-07T20:45:00.287Z,88.80
2017-05-07T20:47:28.588Z,89.20
2017-05-07T20:49:56.868Z,88.70
2017-05-07T20:52:25.168Z,88.80
2017-05-07T20:54:53.456Z,88.90
2017-05-07T20:57:21.778Z,88.90
2017-05-07T20:59:50.066Z,88.70
2017-05-07T21:02:18.347Z,88.70
2017-05-07T21:04:46.656Z,88.60
2017-05-07T21:07:14.971Z,88.60
2017-05-07T21:09:43.264Z,89.10
2017-05-07T21:12:11.548Z,88.80
2017-05-07T21:14:39.860Z,89.00
2017-05-07T21:17:08.147Z,89.20
2017-05-07T21:19:36.432Z,88.80
2017-05-07T21:22:04.829Z,88.80
2017-05-07T21:24:33.121Z,89.20
2017-05-07T21:27:01.424Z,89.20
2017-05-07T21:29:30.454Z,89.10
2017-05-07T21:31:58.771Z,89.30
2017-05-07T21:34:27.056Z,89.20
2017-05-07T21:36:55.339Z,89.20
2017-05-07T21:39:24.388Z,89.10
2017-05-07T21:41:52.672Z,88.90
2017-05-07T21:44:20.972Z,88.90
2017-05-07T21:46:49.258Z,89.40
2017-05-07T21:49:17.560Z,89.40
2017-05-07T21:51:45.851Z,89.80
2017-05-07T21:54:14.156Z,89.80
2017-05-07T21:56:42.446Z,90.00
2017-05-07T21:59:10.756Z,90.00
2017-05-07T22:01:39.064Z,90.30
2017-05-07T22:04:07.348Z,90.00
2017-05-07T22:06:35.659Z,89.60
2017-05-07T22:09:03.952Z,90.00
2017-05-07T22:11:33.000Z,89.30
2017-05-07T22:14:01.292Z,89.70
2017-05-07T22:16:30.631Z,89.80
2017-05-07T22:18:58.947Z,89.20
2017-05-07T22:21:27.240Z,89.40
2017-05-07T22:23:55.544Z,89.50
2017-05-07T22:26:24.576Z,89.70
2017-05-07T22:28:52.880Z,89.30
2017-05-07T22:31:21.168Z,89.40
2017-05-07T22:33:49.471Z,89.50
2017-05-07T22:36:18.504Z,89.30
2017-05-07T22:38:46.845Z,89.50
2017-05-07T22:41:15.875Z,89.30
2017-05-07T22:43:44.162Z,89.00
2017-05-07T22:46:12.468Z,89.20
2017-05-07T22:48:40.762Z,89.40
2017-05-07T22:51:09.808Z,88.90
2017-05-07T22:53:38.102Z,88.90
2017-05-07T22:56:06.422Z,88.80
2017-05-07T22:58:35.463Z,88.80
2017-05-07T23:01:03.752Z,89.40
2017-05-07T23:03:32.064Z,89.20
2017-05-07T23:06:01.097Z,89.40
2017-05-07T23:08:29.396Z,89.70
2017-05-07T23:10:57.684Z,89.40
2017-05-07T23:13:25.992Z,89.90
2017-05-07T23:15:54.280Z,89.80
2017-05-07T23:18:22.593Z,89.50
2017-05-07T23:20:50.881Z,89.60
2017-05-07T23:23:19.177Z,89.60
2017-05-07T23:25:48.224Z,90.30
2017-05-07T23:28:16.516Z,89.40
2017-05-07T23:30:44.832Z,89.10
2017-05-07T23:33:13.871Z,89.50
2017-05-07T23:35:42.187Z,89.60
2017-05-07T23:38:10.484Z,89.50
2017-05-07T23:40:39.516Z,89.10
2017-05-07T23:43:07.820Z,89.20
2017-05-07T23:45:36.113Z,89.20
2017-05-07T23:48:04.416Z,89.40
2017-05-07T23:50:32.704Z,89.70
2017-05-07T23:53:01.032Z,89.80
2017-05-07T23:55:29.325Z,89.90
2017-05-07T23:57:58.359Z,89.30
